Cape Mathilde — HOVQ — position and weather

sailwx.info

Track history (hours):
 
Tides and Currents Weather Stations Pressure Air Temp Water Temp Dewpoint Dewpoint Depression Visibility Wind Speed Wind Dir Waves Ship Positions

Cape Mathilde

Last reported at 2017-Dec-18 02:44 UTC. Time now 2017-Dec-18 08:45 UTC.
Position N 37°55' W 000°10'.

Length 292 m; draft 16.5 m.

Type: Cargo ship. MMSI: 352665000.

Date/timePositionNaut miles runAvg speedWind from/ knotsBaromVisibWave heightAir tempDewpointWater temp
2017-Dec-18 02:44N 37°55' W 000°10'512.7
2017-Dec-18 02:23N 37°51' W 000°13'512.6
2017-Dec-18 01:59N 37°47' W 000°18'612.3
2017-Dec-18 01:30N 37°43' W 000°22'612.1
2017-Dec-18 01:01N 37°38' W 000°26'611.9
2017-Dec-18 00:30N 37°33' W 000°31'612.0
2017-Dec-18 00:01N 37°29' W 000°37'612.1
2017-Dec-17 23:30N 37°25' W 000°42'612.4
2017-Dec-17 23:01N 37°21' W 000°48'612.4
2017-Dec-17 22:31N 37°17' W 000°54'1112.4
2017-Dec-17 21:35N 37°09' W 001°05'20912.0
2017-Dec-17 04:12N 36°01' W 005°11'213.1
2017-Dec-17 04:01N 36°01' W 005°14'713.6
2017-Dec-17 03:31N 35°59' W 005°22'713.5
2017-Dec-17 03:00N 35°57' W 005°30'  
2017-Dec-14 01:33N 39°23' W 023°23'612.2
2017-Dec-14 01:03N 39°24' W 023°31'111.8
2017-Dec-14 01:00N 39°25' W 023°32'712.2
2017-Dec-14 00:27N 39°26' W 023°40'612.3
2017-Dec-13 23:58N 39°28' W 023°48'612.3
2017-Dec-13 23:29N 39°29' W 023°55'612.3
2017-Dec-13 23:00N 39°31' W 024°03'1012.5
2017-Dec-13 22:11N 39°34' W 024°15'8112.8
2017-Dec-13 15:50N 39°55' W 025°57'4912.4
2017-Dec-13 11:51N 40°08' W 026°59'3412.4
2017-Dec-13 09:07N 40°16' W 027°42'111.9
2017-Dec-13 09:00N 40°17' W 027°44'1112.0
2017-Dec-13 08:04N 40°20' W 027°58'4112.0
2017-Dec-13 04:39N 40°30' W 028°50'311.9
2017-Dec-13 04:24N 40°31' W 028°54'1512.0
2017-Dec-13 03:07N 40°35' W 029°14'211.7
2017-Dec-13 02:58N 40°36' W 029°16'812.1
2017-Dec-13 02:19N 40°38' W 029°26'412.4
2017-Dec-13 02:00N 40°39' W 029°31'712.1
2017-Dec-13 01:27N 40°40' W 029°39'612.1
2017-Dec-13 01:00N 40°42' W 029°46'612.0
2017-Dec-13 00:28N 40°43' W 029°54'612.2
2017-Dec-13 00:00N 40°45' W 030°01'612.1
2017-Dec-12 23:30N 40°47' W 030°09'612.3
2017-Dec-12 23:00N 40°48' W 030°17'612.5
2017-Dec-12 22:30N 40°50' W 030°25'812.7
2017-Dec-12 21:53N 40°52' W 030°35'3712.8
2017-Dec-12 18:59N 41°01' W 031°22'3012.6
2017-Dec-12 16:36N 41°09' W 032°01'  
Track history (hours):
 
Tides and Currents Weather Stations Pressure Air Temp Water Temp Dewpoint Dewpoint Depression Visibility Wind Speed Wind Dir Waves Ship Positions

Cape Mathilde

Last reported at 2017-Dec-18 02:44 UTC. Time now 2017-Dec-18 08:45 UTC.
Position N 37°55' W 000°10'.

Length 292 m; draft 16.5 m.

Type: Cargo ship. MMSI: 352665000.

Date/timePositionNaut miles runAvg speedWind from/ knotsBaromVisibWave heightAir tempDewpointWater temp
2017-Dec-18 02:44N 37°55' W 000°10'512.7
2017-Dec-18 02:23N 37°51' W 000°13'512.6
2017-Dec-18 01:59N 37°47' W 000°18'612.3
2017-Dec-18 01:30N 37°43' W 000°22'612.1
2017-Dec-18 01:01N 37°38' W 000°26'611.9
2017-Dec-18 00:30N 37°33' W 000°31'612.0
2017-Dec-18 00:01N 37°29' W 000°37'612.1
2017-Dec-17 23:30N 37°25' W 000°42'612.4
2017-Dec-17 23:01N 37°21' W 000°48'612.4
2017-Dec-17 22:31N 37°17' W 000°54'1112.4
2017-Dec-17 21:35N 37°09' W 001°05'20912.0
2017-Dec-17 04:12N 36°01' W 005°11'213.1
2017-Dec-17 04:01N 36°01' W 005°14'713.6
2017-Dec-17 03:31N 35°59' W 005°22'713.5
2017-Dec-17 03:00N 35°57' W 005°30'  
2017-Dec-14 01:33N 39°23' W 023°23'612.2
2017-Dec-14 01:03N 39°24' W 023°31'111.8
2017-Dec-14 01:00N 39°25' W 023°32'712.2
2017-Dec-14 00:27N 39°26' W 023°40'612.3
2017-Dec-13 23:58N 39°28' W 023°48'612.3
2017-Dec-13 23:29N 39°29' W 023°55'612.3
2017-Dec-13 23:00N 39°31' W 024°03'1012.5
2017-Dec-13 22:11N 39°34' W 024°15'8112.8
2017-Dec-13 15:50N 39°55' W 025°57'4912.4
2017-Dec-13 11:51N 40°08' W 026°59'3412.4
2017-Dec-13 09:07N 40°16' W 027°42'111.9
2017-Dec-13 09:00N 40°17' W 027°44'1112.0
2017-Dec-13 08:04N 40°20' W 027°58'4112.0
2017-Dec-13 04:39N 40°30' W 028°50'311.9
2017-Dec-13 04:24N 40°31' W 028°54'1512.0
2017-Dec-13 03:07N 40°35' W 029°14'211.7
2017-Dec-13 02:58N 40°36' W 029°16'812.1
2017-Dec-13 02:19N 40°38' W 029°26'412.4
2017-Dec-13 02:00N 40°39' W 029°31'712.1
2017-Dec-13 01:27N 40°40' W 029°39'612.1
2017-Dec-13 01:00N 40°42' W 029°46'612.0
2017-Dec-13 00:28N 40°43' W 029°54'612.2
2017-Dec-13 00:00N 40°45' W 030°01'612.1
2017-Dec-12 23:30N 40°47' W 030°09'612.3
2017-Dec-12 23:00N 40°48' W 030°17'612.5
2017-Dec-12 22:30N 40°50' W 030°25'812.7
2017-Dec-12 21:53N 40°52' W 030°35'3712.8
2017-Dec-12 18:59N 41°01' W 031°22'3012.6
2017-Dec-12 16:36N 41°09' W 032°01'  

Dump ship's entire track history